createdAt,value
2022-08-07T00:00:40.110Z,7.13
2022-08-07T00:03:08.607Z,7.28
2022-08-07T00:05:37.142Z,7.78
2022-08-07T00:08:05.504Z,7.03
2022-08-07T00:10:35.500Z,6.80
2022-08-07T00:13:17.454Z,6.85
2022-08-07T00:15:53.423Z,7.22
2022-08-07T00:18:24.479Z,7.28
2022-08-07T00:20:52.897Z,7.28
2022-08-07T00:23:21.127Z,7.68
2022-08-07T00:25:52.125Z,7.28
2022-08-07T00:28:33.309Z,7.53
2022-08-07T00:31:06.187Z,6.78
2022-08-07T00:33:34.147Z,8.30
2022-08-07T00:36:01.672Z,7.88
2022-08-07T00:38:31.186Z,7.43
2022-08-07T00:40:59.194Z,7.22
2022-08-07T00:44:00.667Z,7.18
2022-08-07T00:46:14.699Z,7.57
2022-08-07T00:48:42.269Z,7.20
2022-08-07T00:51:10.537Z,7.03
2022-08-07T00:53:39.387Z,7.60
2022-08-07T00:56:18.103Z,8.52
2022-08-07T00:58:47.469Z,7.88
2022-08-07T01:01:20.492Z,8.13
2022-08-07T01:03:56.180Z,7.72
2022-08-07T01:06:27.144Z,7.25
2022-08-07T01:08:55.633Z,7.75
2022-08-07T01:12:05.048Z,7.63
2022-08-07T01:19:19.131Z,7.82
2022-08-07T01:21:53.454Z,8.05
2022-08-07T01:24:27.736Z,8.32
2022-08-07T01:26:59.084Z,6.95
2022-08-07T01:29:31.509Z,7.15
2022-08-07T01:32:05.228Z,7.68
2022-08-07T01:34:33.330Z,8.13
2022-08-07T01:37:09.755Z,8.18
2022-08-07T01:39:46.727Z,8.23
2022-08-07T01:42:38.517Z,7.63
2022-08-07T01:45:22.913Z,8.32
2022-08-07T01:48:18.623Z,7.95
2022-08-07T01:50:49.819Z,8.38
2022-08-07T01:53:21.937Z,9.32
2022-08-07T01:56:13.210Z,8.02
2022-08-07T01:58:46.512Z,8.00
2022-08-07T02:01:25.512Z,7.80
2022-08-07T02:04:11.567Z,7.10
2022-08-07T02:06:43.219Z,7.78
2022-08-07T02:09:33.769Z,9.32
2022-08-07T02:12:18.220Z,9.02
2022-08-07T02:14:54.010Z,8.55
2022-08-07T02:17:39.558Z,9.15
2022-08-07T02:20:17.513Z,9.32
2022-08-07T02:22:55.045Z,9.00
2022-08-07T02:26:10.906Z,8.30
2022-08-07T02:28:24.388Z,9.18
2022-08-07T02:30:53.792Z,8.27
2022-08-07T02:33:23.448Z,8.75
2022-08-07T02:36:29.578Z,9.65
2022-08-07T02:38:56.762Z,9.35
2022-08-07T02:41:37.101Z,8.32
2022-08-07T02:44:07.239Z,9.55
2022-08-07T02:46:36.953Z,8.73
2022-08-07T02:49:56.108Z,9.18
2022-08-07T02:52:04.957Z,9.27
2022-08-07T02:54:35.513Z,9.05
2022-08-07T02:57:06.612Z,9.00
2022-08-07T02:59:34.755Z,10.13
2022-08-07T03:02:07.379Z,9.93
2022-08-07T03:04:37.110Z,10.10
2022-08-07T03:07:10.474Z,10.10
2022-08-07T03:09:44.397Z,11.10
2022-08-07T03:12:22.663Z,10.13
2022-08-07T03:15:07.733Z,9.18
2022-08-07T03:17:52.855Z,10.45
2022-08-07T03:20:22.405Z,9.55
2022-08-07T03:22:50.917Z,9.23
2022-08-07T03:25:21.128Z,9.23
2022-08-07T03:28:08.816Z,10.25
2022-08-07T03:30:38.483Z,9.70
2022-08-07T03:33:08.657Z,10.25
2022-08-07T03:35:50.098Z,10.05
2022-08-07T03:38:20.906Z,10.43
2022-08-07T03:40:57.265Z,10.48
2022-08-07T03:43:32.211Z,9.73
2022-08-07T03:46:03.411Z,9.82
2022-08-07T03:48:32.571Z,10.50
2022-08-07T03:51:00.768Z,10.68
2022-08-07T03:54:33.014Z,9.60
2022-08-07T03:56:33.276Z,10.35
2022-08-07T03:59:10.157Z,9.45
2022-08-07T04:01:45.738Z,10.73
2022-08-07T04:04:17.757Z,10.68
2022-08-07T04:06:50.808Z,10.88
2022-08-07T04:09:23.319Z,11.50
2022-08-07T04:12:24.147Z,11.40
2022-08-07T04:14:46.212Z,10.32
2022-08-07T04:17:21.552Z,11.75
2022-08-07T04:19:54.860Z,10.98
2022-08-07T04:22:27.478Z,10.63
2022-08-07T04:24:58.357Z,11.35
2022-08-07T04:27:26.515Z,11.65
2022-08-07T04:30:02.661Z,10.38
2022-08-07T04:32:58.242Z,11.13
2022-08-07T04:35:28.588Z,11.60
2022-08-07T04:38:07.098Z,11.65
2022-08-07T04:40:43.931Z,11.57
2022-08-07T04:44:10.408Z,11.88
2022-08-07T04:46:29.360Z,11.10
2022-08-07T04:49:24.566Z,12.68
2022-08-07T04:54:32.314Z,12.38
2022-08-07T04:58:14.423Z,12.27
2022-08-07T05:00:10.746Z,11.73
2022-08-07T05:02:48.641Z,12.45
2022-08-07T05:05:52.834Z,12.30
2022-08-07T05:08:18.033Z,11.80
2022-08-07T05:11:11.093Z,11.75
2022-08-07T05:14:53.261Z,11.30
2022-08-07T05:16:44.088Z,10.75
2022-08-07T05:19:19.567Z,11.43
2022-08-07T05:22:04.734Z,11.13
2022-08-07T05:24:39.573Z,11.63
2022-08-07T05:28:02.058Z,12.18
2022-08-07T05:29:59.748Z,11.27
2022-08-07T05:32:27.420Z,12.13
2022-08-07T05:34:56.804Z,11.23
2022-08-07T05:37:25.767Z,10.93
2022-08-07T05:40:13.449Z,11.15
2022-08-07T05:42:55.822Z,12.15
2022-08-07T05:45:47.087Z,12.85
2022-08-07T05:48:14.297Z,11.63
2022-08-07T05:50:47.827Z,11.48
2022-08-07T05:54:12.817Z,12.32
2022-08-07T05:56:08.664Z,11.02
2022-08-07T05:58:52.446Z,11.05
2022-08-07T06:01:24.874Z,10.07
2022-08-07T06:03:59.009Z,10.70
2022-08-07T06:06:34.740Z,9.90
2022-08-07T06:09:05.377Z,10.93
2022-08-07T06:11:37.635Z,10.32
2022-08-07T06:14:13.336Z,9.43
2022-08-07T06:16:56.147Z,9.75
2022-08-07T06:19:52.299Z,9.35
2022-08-07T06:22:27.393Z,8.77
2022-08-07T06:25:10.636Z,8.50
2022-08-07T06:27:44.215Z,8.60
2022-08-07T06:30:35.346Z,8.57
2022-08-07T06:33:15.650Z,8.25
2022-08-07T06:35:47.917Z,8.32
2022-08-07T06:38:32.600Z,7.85
2022-08-07T06:41:06.891Z,7.43
2022-08-07T06:43:39.596Z,6.70
2022-08-07T06:46:12.656Z,6.85
2022-08-07T06:48:42.031Z,6.50
2022-08-07T06:51:31.114Z,7.13
2022-08-07T06:55:29.149Z,6.00
2022-08-07T06:56:55.511Z,5.55
2022-08-07T07:00:14.842Z,4.80
2022-08-07T07:02:48.838Z,4.22
2022-08-07T07:05:12.953Z,3.95
2022-08-07T07:07:59.472Z,3.90
2022-08-07T07:10:36.204Z,4.07
2022-08-07T07:13:13.226Z,3.30
2022-08-07T07:15:44.671Z,3.17
2022-08-07T07:18:47.382Z,3.03
2022-08-07T07:21:19.511Z,2.92
2022-08-07T07:24:09.033Z,2.70
2022-08-07T07:26:39.683Z,2.92
2022-08-07T07:29:55.815Z,2.55
2022-08-07T07:32:03.535Z,2.75
2022-08-07T07:34:33.248Z,2.28
2022-08-07T07:37:05.511Z,2.55
2022-08-07T07:39:54.845Z,2.33
2022-08-07T07:42:33.079Z,2.53
2022-08-07T07:45:02.577Z,2.75
2022-08-07T07:47:42.924Z,2.55
2022-08-07T07:50:35.167Z,2.45
2022-08-07T07:55:54.728Z,1.98
2022-08-07T07:58:29.552Z,2.17
2022-08-07T08:00:58.380Z,2.30
2022-08-07T08:04:10.100Z,1.90
2022-08-07T08:06:17.491Z,1.70
2022-08-07T08:08:46.310Z,1.70
2022-08-07T08:11:17.907Z,1.60
2022-08-07T08:14:04.398Z,1.80
2022-08-07T08:16:35.523Z,1.90
2022-08-07T08:19:17.934Z,1.70
2022-08-07T08:22:11.426Z,1.40
2022-08-07T08:25:18.220Z,1.70
2022-08-07T08:27:57.082Z,1.70
2022-08-07T08:30:34.878Z,1.40
2022-08-07T08:33:10.622Z,1.60
2022-08-07T08:35:49.780Z,2.08
2022-08-07T08:38:20.550Z,1.65
2022-08-07T08:40:57.088Z,1.60
2022-08-07T08:43:42.260Z,1.60
2022-08-07T08:46:25.295Z,1.60
2022-08-07T08:48:59.713Z,1.60
2022-08-07T08:51:49.531Z,2.08
2022-08-07T08:54:24.580Z,1.58
2022-08-07T08:56:54.144Z,1.45
2022-08-07T08:59:29.486Z,1.15
2022-08-07T09:02:08.766Z,1.45
2022-08-07T09:04:44.820Z,1.30
2022-08-07T09:07:23.072Z,1.27
2022-08-07T09:09:58.836Z,1.20
2022-08-07T09:12:53.061Z,1.00
2022-08-07T09:16:21.490Z,1.05
2022-08-07T09:19:03.482Z,1.25
2022-08-07T09:22:09.747Z,1.10
2022-08-07T09:24:59.058Z,1.20
2022-08-07T09:28:00.394Z,1.30
2022-08-07T09:30:48.853Z,1.27
2022-08-07T09:33:52.350Z,1.30
2022-08-07T09:36:31.174Z,1.23
2022-08-07T09:39:52.596Z,1.10
2022-08-07T09:42:11.912Z,0.95
2022-08-07T09:47:55.116Z,1.20
2022-08-07T09:48:00.233Z,1.38
2022-08-07T09:50:40.017Z,1.30
2022-08-07T09:53:12.655Z,1.08
2022-08-07T09:56:03.106Z,1.45
2022-08-07T09:58:55.428Z,1.25
2022-08-07T10:01:50.488Z,1.08
2022-08-07T10:04:33.083Z,0.98
2022-08-07T10:07:25.545Z,1.10
2022-08-07T10:10:03.916Z,1.20
2022-08-07T10:12:53.231Z,1.25
2022-08-07T10:15:44.017Z,0.90
2022-08-07T10:18:35.394Z,1.13
2022-08-07T10:22:12.418Z,1.30
2022-08-07T10:24:25.864Z,1.20
2022-08-07T10:27:19.585Z,1.30
2022-08-07T10:30:04.921Z,1.23
2022-08-07T10:32:53.261Z,1.05
2022-08-07T10:35:55.229Z,1.50
2022-08-07T10:38:36.169Z,1.20
2022-08-07T10:41:51.609Z,1.45
2022-08-07T10:44:16.863Z,1.20
2022-08-07T10:47:14.141Z,1.30
2022-08-07T10:49:50.752Z,1.20
2022-08-07T10:52:31.837Z,1.40
2022-08-07T10:55:32.500Z,1.30
2022-08-07T11:00:50.591Z,1.45
2022-08-07T11:03:37.861Z,1.30
2022-08-07T11:06:26.708Z,1.30
2022-08-07T11:09:00.266Z,1.35
2022-08-07T11:11:35.907Z,1.35
2022-08-07T11:14:44.339Z,1.33
2022-08-07T11:17:01.993Z,1.50
2022-08-07T11:19:38.094Z,1.50
2022-08-07T11:22:19.181Z,1.35
2022-08-07T11:25:06.646Z,1.92
2022-08-07T11:28:02.366Z,1.90
2022-08-07T11:30:42.291Z,2.00
2022-08-07T11:33:16.877Z,2.00
2022-08-07T11:35:59.186Z,1.90
2022-08-07T11:38:30.663Z,1.80
2022-08-07T11:41:04.036Z,1.50
2022-08-07T11:43:54.705Z,1.50
2022-08-07T11:46:36.630Z,1.70
2022-08-07T11:49:50.390Z,2.00
2022-08-07T11:52:39.188Z,2.08
2022-08-07T11:55:18.965Z,2.10
2022-08-07T11:58:16.454Z,1.60
2022-08-07T12:01:02.279Z,1.52
2022-08-07T12:04:02.406Z,1.83
2022-08-07T12:06:50.760Z,1.58
2022-08-07T12:09:28.678Z,2.00
2022-08-07T12:12:09.484Z,1.80
2022-08-07T12:14:56.471Z,1.70
2022-08-07T12:17:37.420Z,1.40
2022-08-07T12:20:18.465Z,1.80
2022-08-07T12:26:21.524Z,1.63
2022-08-07T12:28:49.747Z,1.85
2022-08-07T12:31:53.259Z,1.63
2022-08-07T12:34:18.487Z,1.80
2022-08-07T12:36:50.027Z,1.70
2022-08-07T12:39:44.108Z,1.98
2022-08-07T12:42:13.194Z,1.60
2022-08-07T12:44:45.239Z,1.70
2022-08-07T12:47:30.740Z,1.58
2022-08-07T12:50:34.490Z,2.10
2022-08-07T12:53:05.317Z,2.17
2022-08-07T12:56:03.326Z,1.70
2022-08-07T12:58:39.454Z,1.90
2022-08-07T13:01:16.996Z,2.00
2022-08-07T13:04:05.328Z,1.95
2022-08-07T13:06:54.220Z,2.17
2022-08-07T13:10:18.752Z,2.00
2022-08-07T13:12:37.801Z,1.83
2022-08-07T13:15:23.509Z,1.92
2022-08-07T13:18:03.588Z,1.83
2022-08-07T13:20:40.220Z,1.90
2022-08-07T13:24:00.737Z,1.92
2022-08-07T13:26:05.543Z,1.80
2022-08-07T13:28:39.471Z,1.95
2022-08-07T13:34:32.696Z,2.08
2022-08-07T13:36:42.265Z,2.08
2022-08-07T13:39:48.932Z,2.10
2022-08-07T13:42:10.170Z,2.00
2022-08-07T13:44:39.745Z,2.03
2022-08-07T13:47:15.770Z,2.10
2022-08-07T13:50:34.994Z,2.17
2022-08-07T13:52:47.040Z,2.05
2022-08-07T13:55:19.538Z,2.22
2022-08-07T13:58:27.999Z,1.90
2022-08-07T14:01:09.113Z,1.83
2022-08-07T14:04:07.887Z,1.80
2022-08-07T14:06:33.028Z,2.10
2022-08-07T14:09:04.479Z,2.10
2022-08-07T14:11:53.733Z,1.70
2022-08-07T14:14:28.471Z,1.73
2022-08-07T14:17:00.097Z,2.15
2022-08-07T14:20:39.756Z,1.90
2022-08-07T14:25:13.550Z,1.95
2022-08-07T14:28:11.544Z,1.90
2022-08-07T14:30:34.048Z,2.15
2022-08-07T14:33:04.466Z,2.10
2022-08-07T14:35:45.514Z,2.08
2022-08-07T14:38:26.523Z,2.10
2022-08-07T14:41:03.863Z,1.80
2022-08-07T14:43:58.072Z,1.80
2022-08-07T14:46:30.709Z,1.75
2022-08-07T14:57:55.151Z,2.33
2022-08-07T15:03:16.710Z,1.90
2022-08-07T15:05:54.778Z,1.92
2022-08-07T15:08:50.370Z,1.92
2022-08-07T15:11:53.618Z,1.83
2022-08-07T15:14:19.614Z,1.70
2022-08-07T15:16:54.927Z,1.92
2022-08-07T15:20:32.430Z,2.13
2022-08-07T15:22:33.541Z,2.20
2022-08-07T15:25:17.063Z,2.33
2022-08-07T15:28:32.399Z,1.88
2022-08-07T15:37:03.852Z,2.03
2022-08-07T15:39:16.825Z,1.90
2022-08-07T15:42:46.156Z,2.00
2022-08-07T15:48:01.351Z,2.20
2022-08-07T15:50:37.935Z,1.98
2022-08-07T15:53:21.763Z,2.25
2022-08-07T15:56:02.772Z,2.13
2022-08-07T15:58:39.278Z,1.75
2022-08-07T16:01:15.344Z,1.75
2022-08-07T16:03:54.394Z,1.80
2022-08-07T16:06:29.868Z,1.73
2022-08-07T16:09:01.301Z,1.40
2022-08-07T16:11:43.300Z,1.80
2022-08-07T16:14:19.192Z,1.30
2022-08-07T16:17:00.479Z,1.33
2022-08-07T16:19:58.876Z,1.60
2022-08-07T16:22:55.328Z,1.77
2022-08-07T16:25:55.425Z,1.85
2022-08-07T16:30:05.889Z,1.90
2022-08-07T16:31:58.625Z,1.58
2022-08-07T16:34:38.473Z,1.67
2022-08-07T16:38:04.365Z,1.80
2022-08-07T16:40:34.257Z,2.05
2022-08-07T16:43:12.180Z,1.70
2022-08-07T16:46:33.410Z,2.17
2022-08-07T16:50:27.449Z,1.92
2022-08-07T16:52:51.052Z,1.63
2022-08-07T16:55:17.267Z,2.22
2022-08-07T16:58:01.929Z,2.20
2022-08-07T17:00:40.333Z,1.95
2022-08-07T17:03:17.142Z,2.47
2022-08-07T17:06:19.758Z,1.70
2022-08-07T17:09:13.956Z,1.75
2022-08-07T17:12:05.229Z,2.22
2022-08-07T17:14:43.771Z,1.85
2022-08-07T17:17:28.127Z,2.20
2022-08-07T17:20:21.671Z,1.70
2022-08-07T17:23:03.830Z,2.10
2022-08-07T17:28:31.130Z,1.92
2022-08-07T17:31:15.952Z,2.28
2022-08-07T17:34:18.212Z,2.03
2022-08-07T17:36:57.964Z,2.50
2022-08-07T17:39:58.813Z,2.10
2022-08-07T17:42:58.303Z,2.20
2022-08-07T17:45:30.770Z,2.30
2022-08-07T17:48:06.819Z,2.28
2022-08-07T17:50:49.926Z,2.33
2022-08-07T17:54:01.583Z,2.40
2022-08-07T17:56:29.372Z,2.30
2022-08-07T17:59:09.593Z,2.38
2022-08-07T18:01:45.790Z,2.47
2022-08-07T18:04:30.745Z,1.85
2022-08-07T18:07:20.831Z,1.90
2022-08-07T18:10:05.970Z,1.63
2022-08-07T18:12:48.194Z,1.77
2022-08-07T18:15:20.175Z,1.60
2022-08-07T18:18:39.896Z,1.58
2022-08-07T18:21:11.870Z,1.85
2022-08-07T18:23:50.888Z,1.50
2022-08-07T18:30:04.383Z,1.42
2022-08-07T18:32:08.855Z,1.20
2022-08-07T18:35:02.618Z,1.30
2022-08-07T18:38:55.880Z,1.30
2022-08-07T18:40:42.748Z,1.20
2022-08-07T18:43:42.682Z,1.42
2022-08-07T18:46:25.422Z,1.10
2022-08-07T18:50:35.236Z,1.23
2022-08-07T18:52:35.451Z,1.42
2022-08-07T18:54:51.720Z,1.13
2022-08-07T18:57:31.459Z,1.60
2022-08-07T19:00:32.864Z,1.30
2022-08-07T19:03:11.668Z,1.30
2022-08-07T19:06:02.635Z,1.00
2022-08-07T19:08:46.252Z,1.23
2022-08-07T19:11:35.903Z,1.20
2022-08-07T19:14:19.981Z,1.48
2022-08-07T19:17:06.661Z,1.70
2022-08-07T19:19:53.528Z,1.38
2022-08-07T19:22:30.830Z,1.63
2022-08-07T19:24:58.844Z,1.30
2022-08-07T19:28:29.622Z,1.48
2022-08-07T19:31:00.909Z,1.20
2022-08-07T19:33:16.053Z,1.50
2022-08-07T19:35:51.736Z,1.67
2022-08-07T19:38:20.618Z,1.42
2022-08-07T19:40:51.421Z,1.40
2022-08-07T19:43:43.969Z,1.58
2022-08-07T19:46:10.705Z,1.45
2022-08-07T19:48:42.696Z,2.33
2022-08-07T19:51:19.569Z,1.55
2022-08-07T19:54:31.148Z,1.40
2022-08-07T19:58:02.350Z,1.30
2022-08-07T19:59:40.801Z,1.50
2022-08-07T20:02:19.276Z,1.83
2022-08-07T20:04:50.162Z,1.80
2022-08-07T20:07:28.263Z,1.80
2022-08-07T20:10:36.677Z,1.60
2022-08-07T20:13:06.018Z,1.77
2022-08-07T20:15:37.280Z,1.40
2022-08-07T20:18:14.668Z,1.95
2022-08-07T20:20:47.167Z,1.85
2022-08-07T20:23:32.949Z,1.80
2022-08-07T20:26:09.995Z,2.03
2022-08-07T20:28:39.975Z,1.85
2022-08-07T20:31:21.340Z,1.85
2022-08-07T20:33:56.593Z,1.92
2022-08-07T20:36:27.231Z,1.60
2022-08-07T20:39:00.534Z,1.55
2022-08-07T20:41:38.326Z,1.63
2022-08-07T20:44:12.521Z,2.00
2022-08-07T20:46:44.223Z,1.95
2022-08-07T20:49:57.994Z,1.80
2022-08-07T20:52:00.656Z,1.80
2022-08-07T20:54:29.983Z,2.00
2022-08-07T20:57:03.748Z,1.95
2022-08-07T21:00:06.669Z,1.90
2022-08-07T21:03:03.328Z,1.70
2022-08-07T21:05:54.463Z,1.70
2022-08-07T21:08:36.363Z,1.75
2022-08-07T21:11:10.852Z,1.63
2022-08-07T21:14:16.250Z,1.73
2022-08-07T21:19:09.085Z,2.10
2022-08-07T21:21:56.835Z,1.95
2022-08-07T21:24:32.561Z,2.17
2022-08-07T21:27:14.659Z,2.03
2022-08-07T21:29:52.796Z,1.95
2022-08-07T21:32:44.163Z,2.25
2022-08-07T21:35:34.633Z,2.33
2022-08-07T21:38:12.631Z,2.60
2022-08-07T21:40:45.786Z,2.10
2022-08-07T21:43:22.938Z,2.42
2022-08-07T21:46:07.528Z,2.70
2022-08-07T21:48:55.782Z,2.75
2022-08-07T21:51:32.593Z,2.45
2022-08-07T21:54:13.204Z,2.72
2022-08-07T21:56:49.431Z,2.20
2022-08-07T22:00:02.967Z,2.38
2022-08-07T22:02:27.484Z,2.53
2022-08-07T22:05:00.259Z,2.75
2022-08-07T22:07:58.864Z,2.70
2022-08-07T22:10:22.214Z,2.53
2022-08-07T22:12:55.518Z,2.83
2022-08-07T22:16:39.825Z,2.75
2022-08-07T22:18:25.554Z,2.90
2022-08-07T22:20:58.003Z,3.17
2022-08-07T22:23:40.516Z,2.83
2022-08-07T22:26:17.565Z,3.03
2022-08-07T22:28:53.164Z,2.83
2022-08-07T22:31:56.306Z,2.80
2022-08-07T22:34:28.861Z,2.80
2022-08-07T22:37:09.337Z,3.05
2022-08-07T22:39:53.554Z,2.92
2022-08-07T22:42:26.013Z,3.75
2022-08-07T22:45:02.174Z,3.60
2022-08-07T22:48:01.527Z,3.38
2022-08-07T22:51:03.352Z,3.40
2022-08-07T22:54:07.080Z,4.45
2022-08-07T22:56:47.326Z,3.97
2022-08-07T22:59:38.170Z,4.40
2022-08-07T23:02:33.085Z,4.63
2022-08-07T23:08:04.851Z,3.97
2022-08-07T23:10:45.195Z,3.90
2022-08-07T23:13:49.229Z,4.10
2022-08-07T23:16:48.635Z,4.30
2022-08-07T23:20:00.022Z,4.35
2022-08-07T23:22:43.084Z,4.47
2022-08-07T23:25:28.495Z,4.82
2022-08-07T23:28:28.623Z,4.68
2022-08-07T23:31:18.553Z,4.05
2022-08-07T23:34:38.183Z,5.13
2022-08-07T23:37:32.206Z,5.05
2022-08-07T23:40:23.038Z,5.93
2022-08-07T23:43:17.020Z,5.82
2022-08-07T23:46:03.002Z,5.10
2022-08-07T23:52:57.982Z,5.57
2022-08-07T23:54:19.932Z,5.97
2022-08-07T23:57:12.557Z,6.03
